Time;durP1;ratioP1;P1;durP2;ratioP2;P2;SDS_P1;SDS_P2;PMS_P1;PMS_P2;Temp;Humidity;BMP_temperature;BMP_pressure;BME280_temperature;BME280_humidity;BME280_pressure;Samples;Min_cycle;Max_cycle;Signal;HPM_P1;HPM_P2
2022/11/28 00:01:09;;;;;;;63.53;38.53;;;3.10;99.90;2.20;101320;;;;567609;252;24093;-79
2022/11/28 00:03:37;;;;;;;60.93;36.73;;;3.10;99.90;2.10;101317;;;;566992;252;24119;-78
2022/11/28 00:06:05;;;;;;;56.33;36.43;;;3.00;99.90;2.20;101307;;;;567195;252;24104;-79
2022/11/28 00:08:33;;;;;;;59.37;36.57;;;3.00;99.90;2.10;101314;;;;567128;252;24091;-79
2022/11/28 00:11:09;;;;;;;72.23;38.37;;;3.00;99.90;2.20;101312;;;;567226;252;24097;-79
2022/11/28 00:13:35;;;;;;;73.20;38.67;;;3.10;99.90;2.20;101307;;;;566865;249;24115;-79
2022/11/28 00:16:02;;;;;;;62.53;38.97;;;3.10;99.90;2.20;101304;;;;567109;253;24101;-79
2022/11/28 00:18:30;;;;;;;70.03;37.03;;;3.10;99.90;2.10;101304;;;;567375;251;24108;-79
2022/11/28 00:21:01;;;;;;;70.47;37.60;;;3.00;99.90;2.10;101313;;;;567213;252;24151;-79
2022/11/28 00:23:29;;;;;;;74.83;38.47;;;3.00;99.90;2.10;101308;;;;567576;252;24144;-78
2022/11/28 00:25:59;;;;;;;62.47;37.47;;;3.00;99.90;2.20;101307;;;;567319;251;24137;-78
2022/11/28 00:28:31;;;;;;;76.40;38.43;;;3.00;99.90;2.20;101300;;;;566872;253;24100;-79
2022/11/28 00:30:55;;;;;;;69.83;37.40;;;3.10;99.90;2.20;101306;;;;566859;252;24126;-78
2022/11/28 00:33:23;;;;;;;63.07;35.23;;;3.10;99.90;2.20;101296;;;;567215;252;24109;-79
2022/11/28 00:35:52;;;;;;;69.63;34.53;;;3.10;99.90;2.20;101297;;;;567452;251;24093;-79
2022/11/28 00:38:20;;;;;;;65.73;35.17;;;3.00;99.90;2.20;101298;;;;567366;251;24102;-80
2022/11/28 00:40:47;;;;;;;84.57;33.20;;;3.10;99.90;2.20;101302;;;;568500;251;24146;-80
2022/11/28 00:43:15;;;;;;;59.40;32.23;;;3.10;99.90;2.20;101303;;;;568157;251;24105;-78
2022/11/28 00:45:44;;;;;;;59.90;34.57;;;3.10;99.90;2.20;101309;;;;567972;251;24218;-78
2022/11/28 00:48:12;;;;;;;76.57;32.90;;;3.10;99.90;2.20;101310;;;;567789;251;25169;-79
2022/11/28 00:50:40;;;;;;;79.53;33.37;;;3.10;99.90;2.20;101303;;;;567702;251;24158;-79
2022/11/28 00:53:11;;;;;;;66.77;31.90;;;3.10;99.90;2.20;101300;;;;567722;251;24139;-79
2022/11/28 00:55:39;;;;;;;73.67;30.63;;;3.10;99.90;2.20;101304;;;;567423;251;24097;-81
2022/11/28 00:58:10;;;;;;;74.33;29.40;;;3.10;99.90;2.20;101300;;;;567465;251;24140;-78
2022/11/28 01:00:35;;;;;;;73.87;30.70;;;3.10;99.90;2.20;101298;;;;567236;252;24101;-80
2022/11/28 01:03:03;;;;;;;49.40;22.40;;;3.10;99.90;2.10;101297;;;;562412;252;35265;-79
2022/11/28 01:05:31;;;;;;;38.40;17.00;;;3.00;99.90;2.10;101291;;;;567472;251;24097;-80
2022/11/28 01:07:59;;;;;;;42.27;16.63;;;3.10;99.90;2.20;101292;;;;567436;251;24089;-79
2022/11/28 01:10:27;;;;;;;81.83;22.60;;;3.10;99.90;2.20;101291;;;;567496;251;24132;-78
2022/11/28 01:12:55;;;;;;;67.03;21.35;;;3.10;99.90;2.20;101286;;;;562527;249;35322;-81
2022/11/28 01:15:23;;;;;;;28.27;15.03;;;3.10;99.90;2.20;101285;;;;567303;251;24115;-82
2022/11/28 01:17:51;;;;;;;34.60;14.83;;;3.10;99.90;2.20;101289;;;;567126;253;24096;-79
2022/11/28 01:20:19;;;;;;;39.93;14.57;;;3.10;99.90;2.20;101272;;;;567218;252;24112;-79
2022/11/28 01:22:47;;;;;;;89.70;22.53;;;3.10;99.90;2.20;101280;;;;567188;252;24111;-79
2022/11/28 01:25:14;;;;;;;58.63;22.87;;;3.10;99.90;2.20;101270;;;;567263;252;24122;-77
2022/11/28 01:27:42;;;;;;;64.80;25.13;;;3.10;99.90;2.10;101271;;;;567334;252;24103;-78
2022/11/28 01:30:10;;;;;;;105.33;28.33;;;3.00;99.90;2.10;101274;;;;567378;252;24097;-81
2022/11/28 01:32:39;;;;;;;103.63;27.17;;;3.00;99.90;2.10;101264;;;;567402;252;24131;-78
2022/11/28 01:35:10;;;;;;;71.40;27.63;;;3.00;99.90;2.10;101270;;;;567367;252;24126;-80
2022/11/28 01:37:38;;;;;;;76.83;26.77;;;3.10;99.90;2.10;101258;;;;567285;253;24092;-80
2022/11/28 01:40:03;;;;;;;175.43;31.33;;;3.00;99.90;2.10;101257;;;;566957;252;24116;-79
2022/11/28 01:42:31;;;;;;;64.80;25.87;;;3.00;99.90;2.10;101255;;;;567274;252;24178;-79
2022/11/28 01:45:14;;;;;;;84.67;26.73;;;3.00;99.90;2.10;101256;;;;567282;252;24109;-83
2022/11/28 01:47:42;;;;;;;83.63;25.43;;;3.00;99.90;2.10;101260;;;;566770;252;24121;-80
2022/11/28 01:50:10;;;;;;;75.70;24.57;;;3.00;99.90;2.10;101255;;;;567945;251;24104;-83
2022/11/28 01:52:37;;;;;;;74.13;25.03;;;3.00;99.90;2.10;101260;;;;568762;251;24122;-83
2022/11/28 01:55:05;;;;;;;79.37;25.87;;;3.00;99.90;2.10;101260;;;;568437;252;24152;-79
2022/11/28 01:57:37;;;;;;;98.40;24.40;;;3.00;99.90;2.10;101256;;;;568127;251;24081;-81
2022/11/28 02:00:02;;;;;;;82.07;23.97;;;3.00;99.90;2.10;101257;;;;567450;252;25147;-81
2022/11/28 02:02:39;;;;;;;105.57;25.57;;;3.00;99.90;2.00;101255;;;;567549;252;24081;-79
2022/11/28 02:05:07;;;;;;;74.40;24.07;;;2.90;99.90;2.00;101261;;;;567452;252;24109;-79
2022/11/28 02:07:35;;;;;;;138.77;26.77;;;2.90;99.90;2.00;101264;;;;567669;251;24120;-80
2022/11/28 02:10:03;;;;;;;65.67;23.83;;;2.80;99.90;1.90;101253;;;;567481;251;24131;-78
2022/11/28 02:12:43;;;;;;;86.37;24.93;;;2.90;99.90;2.00;101244;;;;567281;249;24123;-79
2022/11/28 02:15:13;;;;;;;106.53;25.40;;;2.80;99.90;2.00;101247;;;;566773;252;24093;-78
2022/11/28 02:17:53;;;;;;;95.30;25.07;;;2.90;99.90;2.00;101239;;;;567422;252;24093;-78
2022/11/28 02:20:54;;;;;;;187.23;29.13;;;2.90;99.90;1.90;101244;;;;533539;261;24229;-77
2022/11/28 02:24:05;;;;;;;174.03;28.10;;;2.80;99.90;1.90;101247;;;;555756;258;24132;-81
2022/11/28 02:27:13;;;;;;;134.30;25.13;;;2.80;99.90;1.90;101245;;;;567470;253;24116;-80
2022/11/28 02:30:05;;;;;;;150.03;28.30;;;2.80;99.90;1.80;101233;;;;567318;251;24100;-79
2022/11/28 02:32:55;;;;;;;188.67;30.50;;;2.70;99.90;1.80;101236;;;;567332;251;24094;-82
2022/11/28 02:35:44;;;;;;;131.60;29.00;;;2.70;99.90;1.80;101229;;;;567296;252;24098;-83
2022/11/28 02:38:51;;;;;;;166.27;29.30;;;2.70;99.90;1.80;101228;;;;564093;251;24109;-79
2022/11/28 02:41:34;;;;;;;199.80;29.57;;;2.70;99.90;1.80;101227;;;;567262;252;26278;-78
2022/11/28 02:44:16;;;;;;;203.83;29.00;;;2.70;99.90;1.80;101229;;;;566986;253;24101;-78
2022/11/28 02:46:59;;;;;;;183.97;28.33;;;2.60;99.90;1.70;101229;;;;570239;251;24120;-78
2022/11/28 02:49:36;;;;;;;188.17;27.53;;;2.60;99.90;1.70;101228;;;;567121;253;24149;-81
2022/11/28 02:52:13;;;;;;;184.30;26.00;;;2.60;99.90;1.70;101223;;;;566867;253;24105;-81
2022/11/28 02:54:41;;;;;;;145.80;25.83;;;2.60;99.90;1.70;101221;;;;566931;252;24120;-82
2022/11/28 02:57:09;;;;;;;160.07;26.37;;;2.60;99.90;1.70;101220;;;;567235;252;24103;-82
2022/11/28 02:59:37;;;;;;;172.57;27.30;;;2.60;99.90;1.70;101226;;;;567089;253;25169;-81
2022/11/28 03:02:06;;;;;;;145.67;24.90;;;2.60;99.90;1.70;101218;;;;568003;251;24096;-78
2022/11/28 03:05:16;;;;;;;59.97;22.03;;;2.60;99.90;1.70;101221;;;;567990;252;24097;-79
2022/11/28 03:07:58;;;;;;;117.80;25.73;;;2.60;99.90;1.70;101220;;;;568059;251;24112;-79
2022/11/28 03:11:03;;;;;;;126.87;24.07;;;2.60;99.90;1.80;101216;;;;565399;252;24136;-79
2022/11/28 03:13:58;;;;;;;177.20;26.53;;;2.70;99.90;1.80;101214;;;;567749;249;24105;-80
2022/11/28 03:16:32;;;;;;;172.27;24.00;;;2.70;99.90;1.80;101209;;;;568059;252;24129;-80
2022/11/28 03:19:27;;;;;;;137.27;24.10;;;2.60;99.90;1.70;101213;;;;566846;252;25206;-78
2022/11/28 03:22:13;;;;;;;226.50;28.60;;;2.60;99.90;1.70;101209;;;;567641;252;24089;-79
2022/11/28 03:25:08;;;;;;;94.07;22.83;;;2.60;99.90;1.70;101211;;;;567592;252;24128;-82
2022/11/28 03:27:36;;;;;;;138.33;24.70;;;2.60;99.90;1.70;101204;;;;552322;260;24160;-84
2022/11/28 03:30:12;;;;;;;171.27;26.03;;;2.60;99.90;1.70;101207;;;;551961;257;24179;-81
2022/11/28 03:32:45;;;;;;;212.90;28.10;;;2.60;99.90;1.70;101201;;;;539259;261;24177;-81
2022/11/28 03:35:15;;;;;;;186.30;25.77;;;2.60;99.90;1.80;101202;;;;556040;256;24157;-83
2022/11/28 03:37:40;;;;;;;198.03;25.60;;;2.60;99.90;1.70;101208;;;;555175;258;24205;-82
2022/11/28 03:40:07;;;;;;;191.43;22.83;;;2.60;99.90;1.70;101205;;;;567227;253;24116;-79
2022/11/28 03:42:35;;;;;;;163.07;21.90;;;2.60;99.90;1.60;101210;;;;567179;253;24149;-81
2022/11/28 03:45:09;;;;;;;157.87;23.60;;;2.50;99.90;1.50;101206;;;;566911;252;24124;-78
2022/11/28 03:47:40;;;;;;;246.52;29.25;;;2.50;99.90;1.50;101204;;;;561865;253;46219;-78
2022/11/28 03:50:11;;;;;;;52.67;13.13;;;2.40;99.90;1.50;101207;;;;566694;253;24109;-78
2022/11/28 03:52:39;;;;;;;184.73;24.13;;;2.40;99.90;1.50;101217;;;;567327;252;24124;-76
2022/11/28 03:55:09;;;;;;;112.37;21.23;;;2.40;99.90;1.40;101216;;;;567430;251;24096;-79
2022/11/28 03:57:49;;;;;;;131.73;21.70;;;2.30;99.90;1.40;101213;;;;566940;253;24113;-78
2022/11/28 04:00:21;;;;;;;170.83;24.03;;;2.30;99.90;1.40;101214;;;;566805;252;24176;-78
2022/11/28 04:02:48;;;;;;;134.93;22.43;;;2.20;99.90;1.30;101216;;;;567208;253;24106;-81
2022/11/28 04:05:37;;;;;;;84.73;21.53;;;2.20;99.90;1.20;101216;;;;566845;253;24100;-78
2022/11/28 04:08:19;;;;;;;198.90;25.13;;;2.20;99.90;1.20;101228;;;;556047;252;24136;-81
2022/11/28 04:10:55;;;;;;;110.90;21.80;;;2.10;99.90;1.20;101220;;;;567357;253;24100;-79
2022/11/28 04:13:29;;;;;;;172.83;21.27;;;2.10;99.90;1.20;101218;;;;568145;250;24100;-80
2022/11/28 04:16:00;;;;;;;86.43;19.07;;;2.10;99.90;1.20;101216;;;;568032;252;24089;-78
2022/11/28 04:18:31;;;;;;;94.67;20.37;;;2.10;99.90;1.10;101212;;;;554553;258;25235;-78
2022/11/28 04:21:17;;;;;;;111.10;19.20;;;2.00;99.90;1.10;101215;;;;568195;251;24121;-79
2022/11/28 04:23:45;;;;;;;98.57;18.47;;;2.00;99.90;1.10;101215;;;;567840;252;24137;-79
2022/11/28 04:26:31;;;;;;;103.20;18.97;;;2.00;99.90;1.10;101210;;;;568320;251;24122;-79
2022/11/28 04:28:59;;;;;;;90.60;18.57;;;2.00;99.90;1.10;101216;;;;567972;251;24101;-81
2022/11/28 04:31:27;;;;;;;98.37;19.97;;;2.00;99.90;1.10;101213;;;;567644;250;24112;-79
2022/11/28 04:33:55;;;;;;;69.50;17.83;;;2.00;99.90;1.10;101219;;;;567464;252;24116;-81
2022/11/28 04:36:22;;;;;;;87.87;18.87;;;2.00;99.90;1.10;101214;;;;567349;252;24117;-83
2022/11/28 04:38:55;;;;;;;115.60;18.57;;;2.00;99.90;1.10;101211;;;;567497;252;24105;-83
2022/11/28 04:41:19;;;;;;;78.00;16.43;;;2.00;99.90;1.10;101213;;;;567366;252;24116;-83
2022/11/28 04:43:50;;;;;;;115.87;19.13;;;2.00;99.90;1.00;101221;;;;567443;252;24093;-83
2022/11/28 04:46:17;;;;;;;54.57;14.60;;;1.90;99.90;1.00;101220;;;;566804;252;24107;-82
2022/11/28 04:48:46;;;;;;;60.53;18.13;;;1.90;99.90;1.00;101215;;;;567045;252;24093;-79
2022/11/28 04:51:41;;;;;;;55.23;17.47;;;1.90;99.90;1.10;101212;;;;567254;252;24096;-82
2022/11/28 04:54:33;;;;;;;56.63;16.60;;;1.90;99.90;1.10;101214;;;;567887;251;24106;-79
2022/11/28 04:57:10;;;;;;;45.27;15.83;;;2.00;99.90;1.10;101212;;;;567667;251;24088;-82
2022/11/28 04:59:38;;;;;;;62.57;16.03;;;2.10;99.90;1.20;101210;;;;567174;253;24085;-82
2022/11/28 05:02:05;;;;;;;47.67;15.07;;;2.00;99.90;1.20;101208;;;;567326;252;24111;-82
2022/11/28 05:04:36;;;;;;;43.13;15.60;;;2.10;99.90;1.20;101217;;;;567269;252;24167;-83
2022/11/28 05:07:04;;;;;;;57.27;17.10;;;2.10;99.90;1.20;101217;;;;567214;253;24092;-82
2022/11/28 05:09:33;;;;;;;62.07;16.57;;;2.10;99.90;1.20;101209;;;;567262;252;24103;-82
2022/11/28 05:12:00;;;;;;;37.80;16.17;;;2.10;99.90;1.30;101205;;;;567421;252;24089;-82
2022/11/28 05:14:28;;;;;;;49.60;16.97;;;2.10;99.90;1.30;101202;;;;567376;249;24119;-83
2022/11/28 05:16:56;;;;;;;44.63;16.50;;;2.20;99.90;1.30;101205;;;;567290;252;24104;-83
2022/11/28 05:19:25;;;;;;;39.17;17.73;;;2.30;99.90;1.40;101206;;;;567259;252;24169;-82
2022/11/28 05:21:53;;;;;;;37.93;16.80;;;2.20;99.90;1.40;101208;;;;567227;252;24122;-83
2022/11/28 05:24:21;;;;;;;50.77;17.83;;;2.30;99.90;1.40;101206;;;;567361;251;24100;-82
2022/11/28 05:26:48;;;;;;;52.67;17.10;;;2.30;99.90;1.40;101206;;;;569142;250;25184;-83
2022/11/28 05:29:17;;;;;;;49.27;17.23;;;2.30;99.90;1.40;101204;;;;568365;251;24096;-83
2022/11/28 05:31:45;;;;;;;79.13;18.83;;;2.30;99.90;1.50;101204;;;;568041;251;24105;-83
2022/11/28 05:34:13;;;;;;;51.23;17.63;;;2.40;99.90;1.50;101204;;;;567907;251;24125;-82
2022/11/28 05:36:41;;;;;;;69.07;20.17;;;2.40;99.90;1.50;101201;;;;567887;251;24100;-82
2022/11/28 05:39:09;;;;;;;72.53;18.37;;;2.40;99.90;1.50;101204;;;;567926;251;25190;-83
2022/11/28 05:41:37;;;;;;;61.73;17.77;;;2.40;99.90;1.50;101211;;;;567788;251;24153;-78
2022/11/28 05:44:05;;;;;;;68.07;18.73;;;2.40;99.90;1.50;101208;;;;567520;251;24090;-82
2022/11/28 05:46:33;;;;;;;40.20;13.23;;;2.40;99.90;1.50;101210;;;;562605;251;35245;-80
2022/11/28 05:49:01;;;;;;;20.87;8.80;;;2.40;99.90;1.50;101206;;;;567498;251;24097;-82
2022/11/28 05:51:29;;;;;;;70.47;16.73;;;2.40;99.90;1.40;101213;;;;567971;251;24135;-82
2022/11/28 05:53:57;;;;;;;53.20;17.70;;;2.30;99.90;1.40;101203;;;;567575;251;24107;-81
2022/11/28 05:56:25;;;;;;;42.47;17.80;;;2.30;99.90;1.40;101199;;;;567491;251;24145;-79
2022/11/28 05:58:53;;;;;;;87.37;20.60;;;2.30;99.90;1.40;101198;;;;567452;251;24109;-79
2022/11/28 06:01:21;;;;;;;62.73;20.47;;;2.30;99.90;1.40;101198;;;;567277;251;25198;-79
2022/11/28 06:03:51;;;;;;;78.83;19.43;;;2.30;99.90;1.40;101201;;;;567175;252;24115;-79
2022/11/28 06:06:20;;;;;;;53.00;20.37;;;2.30;99.90;1.40;101200;;;;567186;252;24105;-80
2022/11/28 06:08:51;;;;;;;45.80;13.93;;;2.30;99.90;1.30;101190;;;;562304;252;46308;-81
2022/11/28 06:11:16;;;;;;;26.43;10.03;;;2.30;99.90;1.30;101192;;;;566883;253;24117;-78
2022/11/28 06:13:44;;;;;;;102.97;21.20;;;2.30;99.90;1.30;101189;;;;567191;249;24140;-79
2022/11/28 06:16:12;;;;;;;55.60;21.03;;;2.30;99.90;1.40;101189;;;;567253;252;24100;-79
2022/11/28 06:18:40;;;;;;;128.57;26.63;;;2.30;99.90;1.40;101185;;;;567200;252;24132;-78
2022/11/28 06:21:08;;;;;;;119.77;23.13;;;2.30;99.90;1.40;101182;;;;567235;252;24109;-79
2022/11/28 06:23:39;;;;;;;61.47;20.43;;;2.30;99.90;1.40;101182;;;;567168;252;24112;-79
2022/11/28 06:26:09;;;;;;;47.90;21.53;;;2.30;99.90;1.40;101182;;;;567564;252;24086;-80
2022/11/28 06:28:40;;;;;;;53.77;21.60;;;2.30;99.90;1.40;101179;;;;567076;252;24101;-83
2022/11/28 06:31:05;;;;;;;44.13;20.20;;;2.30;99.90;1.50;101183;;;;567144;253;24124;-82
2022/11/28 06:33:33;;;;;;;52.50;20.73;;;2.40;99.90;1.50;101185;;;;567089;251;24080;-82
2022/11/28 06:36:04;;;;;;;98.73;24.80;;;2.40;99.90;1.50;101182;;;;567487;251;24123;-80
2022/11/28 06:38:33;;;;;;;101.43;22.07;;;2.40;99.90;1.50;101180;;;;568247;252;24101;-79
2022/11/28 06:40:57;;;;;;;174.70;23.83;;;2.40;99.90;1.50;101186;;;;568070;252;24096;-82
2022/11/28 06:43:25;;;;;;;180.00;25.47;;;2.40;99.90;1.40;101180;;;;568038;251;24160;-82
2022/11/28 06:45:57;;;;;;;79.73;22.20;;;2.30;99.90;1.40;101185;;;;567919;251;25144;-79
2022/11/28 06:48:22;;;;;;;120.47;22.30;;;2.30;99.90;1.40;101190;;;;567456;252;24100;-82
2022/11/28 06:50:53;;;;;;;165.30;23.40;;;2.30;99.90;1.30;101192;;;;567709;252;24110;-80
2022/11/28 06:53:18;;;;;;;77.00;20.07;;;2.20;99.90;1.20;101179;;;;567370;251;25150;-80
2022/11/28 06:55:46;;;;;;;104.63;21.53;;;2.20;99.90;1.20;101189;;;;567523;251;24086;-79
2022/11/28 06:58:14;;;;;;;50.63;19.07;;;2.10;99.90;1.20;101186;;;;567410;252;24116;-80
2022/11/28 07:00:42;;;;;;;60.67;19.37;;;2.10;99.90;1.30;101186;;;;567471;251;24093;-81
2022/11/28 07:03:12;;;;;;;221.33;25.40;;;2.20;99.90;1.30;101188;;;;567478;251;24176;-80
2022/11/28 07:05:38;;;;;;;215.07;24.87;;;2.20;99.90;1.30;101188;;;;567372;252;24188;-79
2022/11/28 07:08:06;;;;;;;240.67;26.50;;;2.20;99.90;1.30;101186;;;;567478;251;24105;-80
2022/11/28 07:10:35;;;;;;;191.40;22.70;;;2.20;99.90;1.30;101195;;;;567528;251;24104;-80
2022/11/28 07:13:03;;;;;;;226.27;26.30;;;2.20;99.90;1.20;101191;;;;567211;249;24123;-80
2022/11/28 07:15:31;;;;;;;235.63;26.97;;;2.20;99.90;1.20;101192;;;;567246;252;24134;-79
2022/11/28 07:17:59;;;;;;;171.13;25.43;;;2.10;99.90;1.20;101186;;;;567254;252;24096;-78
2022/11/28 07:20:26;;;;;;;50.40;20.27;;;2.10;99.90;1.20;101188;;;;567255;252;24168;-80
2022/11/28 07:22:54;;;;;;;124.10;22.37;;;2.10;99.90;1.20;101192;;;;567204;252;24112;-79
2022/11/28 07:25:22;;;;;;;228.60;25.60;;;2.10;99.90;1.20;101190;;;;567653;251;24097;-78
2022/11/28 07:27:50;;;;;;;218.40;23.53;;;2.10;99.90;1.00;101185;;;;567266;251;24100;-80
2022/11/28 07:30:19;;;;;;;185.20;24.70;;;2.00;99.90;1.00;101180;;;;567206;252;24100;-78
2022/11/28 07:32:47;;;;;;;179.30;23.80;;;1.90;99.90;1.00;101181;;;;567022;253;24125;-78
2022/11/28 07:35:15;;;;;;;220.87;26.33;;;1.90;99.90;1.00;101180;;;;567211;252;24132;-81
2022/11/28 07:37:46;;;;;;;154.87;24.17;;;1.90;99.90;1.00;101178;;;;567215;252;24092;-81
2022/11/28 07:40:12;;;;;;;230.53;27.93;;;1.90;99.90;1.00;101186;;;;567106;252;24129;-79
2022/11/28 07:42:39;;;;;;;109.47;24.90;;;1.90;99.90;1.00;101178;;;;567212;252;24103;-79
2022/11/28 07:45:10;;;;;;;221.83;27.37;;;2.00;99.90;1.10;101185;;;;567231;252;24119;-78
2022/11/28 07:47:35;;;;;;;131.60;23.73;;;2.00;99.90;1.00;101188;;;;567261;251;24111;-78
2022/11/28 07:50:04;;;;;;;183.77;25.83;;;2.00;99.90;1.00;101185;;;;568623;251;24114;-78
2022/11/28 07:52:31;;;;;;;248.10;30.80;;;2.00;99.90;1.10;101182;;;;568181;251;24092;-78
2022/11/28 07:55:00;;;;;;;183.47;27.50;;;2.00;99.90;1.10;101192;;;;568134;251;24136;-77
2022/11/28 07:57:29;;;;;;;81.27;23.97;;;2.00;99.90;1.20;101189;;;;567895;251;25131;-78
2022/11/28 07:59:56;;;;;;;84.30;24.13;;;2.10;99.90;1.20;101181;;;;567679;252;24202;-80
2022/11/28 08:02:25;;;;;;;130.70;25.80;;;2.20;99.90;1.30;101174;;;;567751;251;24141;-81
2022/11/28 08:04:52;;;;;;;98.43;22.57;;;2.40;99.90;1.50;101177;;;;567616;252;25184;-78
2022/11/28 08:07:20;;;;;;;173.57;27.80;;;2.30;99.90;1.50;101176;;;;567505;251;25166;-80
2022/11/28 08:09:48;;;;;;;81.77;20.27;;;2.40;99.90;1.60;101178;;;;567510;251;24105;-82
2022/11/28 08:12:16;;;;;;;146.73;23.30;;;2.50;99.90;1.70;101182;;;;567480;251;24137;-83
2022/11/28 08:14:44;;;;;;;81.90;20.10;;;2.60;99.90;1.60;101184;;;;567584;249;24111;-78
2022/11/28 08:17:12;;;;;;;235.43;26.17;;;2.60;99.90;1.60;101184;;;;567629;251;25167;-81
2022/11/28 08:19:40;;;;;;;88.80;19.97;;;2.50;99.90;1.50;101186;;;;567610;251;24105;-80
2022/11/28 08:22:07;;;;;;;118.50;21.17;;;2.50;99.90;1.50;101190;;;;567712;251;24118;-78
2022/11/28 08:24:35;;;;;;;133.63;23.37;;;2.50;99.90;1.60;101191;;;;567532;251;24159;-81
2022/11/28 08:27:03;;;;;;;84.83;19.23;;;2.50;99.90;1.60;101194;;;;567840;251;24109;-83
2022/11/28 08:29:31;;;;;;;50.40;18.23;;;2.60;99.90;1.70;101195;;;;567577;251;24171;-83
2022/11/28 08:31:59;;;;;;;85.90;20.47;;;2.60;99.90;1.80;101189;;;;567432;252;24145;-83
2022/11/28 08:34:27;;;;;;;133.93;21.13;;;2.70;99.90;1.80;101181;;;;567924;252;24136;-77
2022/11/28 08:36:55;;;;;;;58.73;19.00;;;2.70;99.90;1.80;101181;;;;567721;252;24113;-78
2022/11/28 08:39:23;;;;;;;56.00;18.43;;;2.70;99.90;1.80;101186;;;;567270;252;24111;-79
2022/11/28 08:41:50;;;;;;;50.93;18.20;;;2.70;99.90;1.90;101182;;;;567346;252;24131;-78
2022/11/28 08:44:18;;;;;;;67.57;23.97;;;2.80;99.90;1.90;101179;;;;567306;252;24123;-78
2022/11/28 08:46:46;;;;;;;54.67;19.57;;;2.80;99.90;1.90;101174;;;;567319;252;24145;-81
2022/11/28 08:49:14;;;;;;;54.47;19.30;;;2.80;99.90;2.00;101180;;;;567495;252;25154;-80
2022/11/28 08:51:46;;;;;;;94.60;20.07;;;2.90;99.90;2.00;101163;;;;567842;252;24117;-78
2022/11/28 08:54:11;;;;;;;149.77;23.60;;;2.90;99.90;2.00;101174;;;;567536;253;24101;-79
2022/11/28 08:56:39;;;;;;;163.57;22.00;;;2.90;99.90;1.90;101178;;;;567675;252;24130;-76
2022/11/28 08:59:06;;;;;;;127.83;21.63;;;2.80;99.90;1.90;101175;;;;567737;251;24140;-79
2022/11/28 09:01:34;;;;;;;196.53;21.83;;;2.80;99.90;1.90;101181;;;;569135;251;24115;-79
2022/11/28 09:04:02;;;;;;;126.77;20.17;;;2.80;99.90;1.90;101177;;;;568620;251;24096;-79
2022/11/28 09:06:30;;;;;;;163.93;22.13;;;2.80;99.90;1.80;101183;;;;568569;251;24111;-79
2022/11/28 09:09:01;;;;;;;42.37;17.70;;;2.70;99.90;1.70;101176;;;;556618;257;25174;-79
2022/11/28 09:11:29;;;;;;;144.10;21.47;;;2.70;99.90;1.80;101175;;;;568136;252;24194;-77
2022/11/28 09:13:57;;;;;;;140.77;18.97;;;2.60;99.90;1.70;101175;;;;568505;249;24117;-79
2022/11/28 09:16:25;;;;;;;73.60;18.90;;;2.60;99.90;1.70;101184;;;;568395;250;24133;-78
2022/11/28 09:18:53;;;;;;;125.03;18.60;;;2.60;99.90;1.60;101175;;;;567806;251;24128;-80
2022/11/28 09:21:25;;;;;;;141.83;20.67;;;2.60;99.90;1.60;101178;;;;555724;251;24146;-80
2022/11/28 09:23:49;;;;;;;236.67;24.30;;;2.60;99.90;1.60;101176;;;;567908;251;24108;-79
2022/11/28 09:26:20;;;;;;;134.57;20.93;;;2.50;99.90;1.60;101177;;;;567604;251;24132;-78
2022/11/28 09:28:50;;;;;;;153.80;22.87;;;2.50;99.90;1.60;101173;;;;568008;251;24177;-81
2022/11/28 09:31:15;;;;;;;207.23;22.70;;;2.50;99.90;1.60;101172;;;;567447;251;24129;-78
2022/11/28 09:33:44;;;;;;;140.40;21.47;;;2.40;99.90;1.50;101178;;;;567533;251;24128;-78
2022/11/28 09:36:15;;;;;;;114.80;20.37;;;2.40;99.90;1.50;101167;;;;567343;251;24094;-77
2022/11/28 09:38:40;;;;;;;123.13;22.63;;;2.40;99.90;1.50;101162;;;;566852;253;24106;-80
2022/11/28 09:41:23;;;;;;;81.37;22.23;;;2.50;99.90;1.50;101164;;;;567303;252;24153;-79
2022/11/28 09:43:51;;;;;;;95.40;21.80;;;2.40;99.90;1.60;101164;;;;566520;253;24103;-78
2022/11/28 09:46:19;;;;;;;74.83;20.50;;;2.50;99.90;1.70;101159;;;;567116;252;24136;-79
2022/11/28 09:48:50;;;;;;;149.43;22.23;;;2.60;99.90;1.60;101161;;;;567027;253;25178;-78
2022/11/28 09:51:44;;;;;;;150.13;20.80;;;2.60;99.90;1.60;101156;;;;566778;252;24173;-79
2022/11/28 09:54:15;;;;;;;146.90;21.60;;;2.50;99.90;1.50;101162;;;;571626;251;24120;-78
2022/11/28 09:56:43;;;;;;;123.57;21.03;;;2.50;99.90;1.50;101142;;;;547967;254;24167;-78
2022/11/28 09:59:24;;;;;;;282.53;27.67;;;2.40;99.90;1.50;101157;;;;567167;252;24116;-78
2022/11/28 10:02:12;;;;;;;130.47;21.17;;;2.40;99.90;1.50;101162;;;;567212;252;24146;-79
2022/11/28 10:04:58;;;;;;;147.97;21.47;;;2.40;99.90;1.60;101159;;;;567392;251;24137;-79
2022/11/28 10:07:47;;;;;;;62.77;18.47;;;2.40;99.90;1.50;101154;;;;567224;252;24112;-81
2022/11/28 10:10:36;;;;;;;87.57;20.47;;;2.40;99.90;1.60;101164;;;;567236;252;24127;-79
2022/11/28 10:13:43;;;;;;;82.90;19.30;;;2.40;99.90;1.60;101155;;;;568367;248;24169;-79
2022/11/28 10:16:44;;;;;;;74.87;21.73;;;2.50;99.90;1.80;101149;;;;568259;252;24097;-79
2022/11/28 10:19:13;;;;;;;159.60;23.30;;;2.60;99.90;1.70;101146;;;;567832;252;24131;-81
2022/11/28 10:21:41;;;;;;;109.70;20.10;;;2.50;99.90;1.70;101152;;;;567689;252;24146;-82
2022/11/28 10:24:21;;;;;;;230.37;24.90;;;2.60;99.90;1.70;101149;;;;555491;258;24171;-79
2022/11/28 10:26:49;;;;;;;71.40;19.67;;;2.60;99.90;1.70;101144;;;;564525;253;24136;-80
2022/11/28 10:29:29;;;;;;;71.10;19.47;;;2.60;99.90;1.70;101140;;;;567487;252;24094;-81
2022/11/28 10:32:00;;;;;;;116.60;22.53;;;2.60;99.90;1.70;101134;;;;567217;252;24164;-81
2022/11/28 10:34:51;;;;;;;129.00;20.77;;;2.60;99.90;1.70;101135;;;;566998;252;24104;-79
2022/11/28 10:37:28;;;;;;;191.63;22.80;;;2.60;99.90;1.70;101138;;;;566541;252;24169;-79
2022/11/28 10:39:56;;;;;;;63.73;19.77;;;2.60;99.90;1.70;101138;;;;567347;252;24100;-78
2022/11/28 10:42:24;;;;;;;133.70;21.17;;;2.60;99.90;1.80;101131;;;;566422;252;24126;-79
2022/11/28 10:45:30;;;;;;;58.10;18.87;;;2.70;99.90;1.70;101134;;;;567398;251;24097;-80
2022/11/28 10:48:00;;;;;;;130.20;22.23;;;2.60;99.90;1.70;101142;;;;567016;252;24108;-79
2022/11/28 10:50:52;;;;;;;201.20;24.37;;;2.60;99.90;1.70;101127;;;;566709;253;24136;-78
2022/11/28 10:53:25;;;;;;;97.73;20.87;;;2.60;99.90;1.60;101140;;;;567001;252;24161;-79
2022/11/28 10:56:21;;;;;;;113.73;23.20;;;2.50;99.90;1.60;101131;;;;563393;253;24100;-77
2022/11/28 10:59:00;;;;;;;87.00;20.90;;;2.50;99.90;1.50;101127;;;;566913;252;24167;-77
2022/11/28 11:01:28;;;;;;;125.70;22.73;;;2.40;99.90;1.50;101130;;;;566755;253;24148;-77
2022/11/28 11:03:56;;;;;;;96.60;22.70;;;2.40;99.90;1.50;101139;;;;566494;253;24147;-78
2022/11/28 11:06:28;;;;;;;65.87;19.90;;;2.40;99.90;1.60;101136;;;;567009;252;24122;-78
2022/11/28 11:08:52;;;;;;;46.60;17.50;;;2.40;99.90;1.60;101133;;;;566672;251;24092;-78
2022/11/28 11:11:34;;;;;;;53.53;18.77;;;2.50;99.90;1.70;101134;;;;567000;252;25185;-78
2022/11/28 11:14:05;;;;;;;36.93;18.77;;;2.50;99.90;1.70;101135;;;;567140;249;24106;-80
2022/11/28 11:16:48;;;;;;;64.23;18.27;;;2.60;99.90;1.80;101144;;;;567020;252;24133;-81
2022/11/28 11:19:34;;;;;;;64.80;19.43;;;2.60;99.90;1.70;101136;;;;566844;253;24108;-78
2022/11/28 11:22:27;;;;;;;41.20;19.60;;;2.60;99.90;1.70;101141;;;;566673;252;24173;-79
2022/11/28 11:25:14;;;;;;;44.80;21.53;;;2.60;99.90;1.80;101142;;;;568367;251;24143;-81
2022/11/28 11:28:00;;;;;;;92.13;21.30;;;2.60;99.90;1.80;101136;;;;567929;251;24147;-80
2022/11/28 11:30:31;;;;;;;70.77;23.40;;;2.70;99.90;1.80;101140;;;;568128;251;24099;-79